createdAt,value
2023-01-30T00:02:00.998Z,41.30
2023-01-30T00:04:31.466Z,41.10
2023-01-30T00:07:03.873Z,41.05
2023-01-30T00:09:33.962Z,41.30
2023-01-30T00:12:05.907Z,41.32
2023-01-30T00:14:35.715Z,41.51
2023-01-30T00:17:06.164Z,41.02
2023-01-30T00:19:36.631Z,41.22
2023-01-30T00:22:08.413Z,41.41
2023-01-30T00:24:38.594Z,41.49
2023-01-30T00:27:09.005Z,41.27
2023-01-30T00:29:39.554Z,41.32
2023-01-30T00:32:10.519Z,41.35
2023-01-30T00:34:41.122Z,41.58
2023-01-30T00:37:13.709Z,41.78
2023-01-30T00:39:43.521Z,41.61
2023-01-30T00:42:30.312Z,41.42
2023-01-30T00:45:17.681Z,41.54
2023-01-30T00:47:49.173Z,41.74
2023-01-30T00:50:19.904Z,41.64
2023-01-30T00:52:52.101Z,41.74
2023-01-30T00:55:21.798Z,41.93
2023-01-30T00:57:51.699Z,41.81
2023-01-30T01:00:23.652Z,41.67
2023-01-30T01:02:54.220Z,41.47
2023-01-30T01:05:24.937Z,41.88
2023-01-30T01:07:58.106Z,41.75
2023-01-30T01:10:28.753Z,41.85
2023-01-30T01:12:58.730Z,41.72
2023-01-30T01:15:30.099Z,41.72
2023-01-30T01:18:01.877Z,41.51
2023-01-30T01:20:32.225Z,42.10
2023-01-30T01:23:04.707Z,41.61
2023-01-30T01:25:35.410Z,42.16
2023-01-30T01:28:06.836Z,42.11
2023-01-30T01:30:37.469Z,41.55
2023-01-30T01:33:07.947Z,41.72
2023-01-30T01:35:43.747Z,41.96
2023-01-30T01:38:15.867Z,41.74
2023-01-30T01:41:06.512Z,42.00
2023-01-30T01:43:40.070Z,41.53
2023-01-30T01:46:23.415Z,41.75
2023-01-30T01:49:00.455Z,42.02
2023-01-30T01:51:36.613Z,42.05
2023-01-30T01:54:14.220Z,41.82
2023-01-30T01:56:50.636Z,41.65
2023-01-30T01:59:29.978Z,42.03
2023-01-30T02:02:06.308Z,41.78
2023-01-30T02:04:56.840Z,42.02
2023-01-30T02:07:28.101Z,41.73
2023-01-30T02:10:00.948Z,42.00
2023-01-30T02:12:31.630Z,42.31
2023-01-30T02:15:03.734Z,41.95
2023-01-30T02:17:34.018Z,41.81
2023-01-30T02:20:14.037Z,42.45
2023-01-30T02:23:32.571Z,42.29
2023-01-30T02:26:55.811Z,42.18
2023-01-30T02:29:58.626Z,42.10
2023-01-30T02:32:39.766Z,42.16
2023-01-30T02:35:25.202Z,41.84
2023-01-30T02:38:15.523Z,42.26
2023-01-30T02:41:02.058Z,42.41
2023-01-30T02:43:43.062Z,42.35
2023-01-30T02:46:22.152Z,42.64
2023-01-30T02:49:00.628Z,42.18
2023-01-30T02:51:36.297Z,42.09
2023-01-30T02:54:10.065Z,42.56
2023-01-30T02:56:52.937Z,42.10
2023-01-30T02:59:29.889Z,42.33
2023-01-30T03:02:44.155Z,42.30
2023-01-30T03:05:45.003Z,42.10
2023-01-30T03:08:34.402Z,42.58
2023-01-30T03:11:07.651Z,42.53
2023-01-30T03:13:58.733Z,42.34
2023-01-30T03:16:35.218Z,42.90
2023-01-30T03:19:08.957Z,42.45
2023-01-30T03:21:45.108Z,42.33
2023-01-30T03:24:16.822Z,42.77
2023-01-30T03:26:56.332Z,42.54
2023-01-30T03:29:27.505Z,42.97
2023-01-30T03:31:58.323Z,42.53
2023-01-30T03:34:28.827Z,42.61
2023-01-30T03:37:01.521Z,42.40
2023-01-30T03:39:31.585Z,42.68
2023-01-30T03:42:01.895Z,42.55
2023-01-30T03:44:32.419Z,42.72
2023-01-30T03:47:02.454Z,42.52
2023-01-30T03:49:32.659Z,43.13
2023-01-30T03:52:05.124Z,42.90
2023-01-30T03:54:38.172Z,42.96
2023-01-30T03:57:08.763Z,42.82
2023-01-30T03:59:39.324Z,43.07
2023-01-30T04:02:10.743Z,43.19
2023-01-30T04:04:40.635Z,42.93
2023-01-30T04:07:13.459Z,42.85
2023-01-30T04:09:43.885Z,42.97
2023-01-30T04:12:14.309Z,43.04
2023-01-30T04:14:44.091Z,42.81
2023-01-30T04:17:14.347Z,42.87
2023-01-30T04:19:44.738Z,43.24
2023-01-30T04:22:17.433Z,43.04
2023-01-30T04:24:48.159Z,42.63
2023-01-30T04:27:19.200Z,43.25
2023-01-30T04:29:50.015Z,42.79
2023-01-30T04:32:20.711Z,42.88
2023-01-30T04:34:51.280Z,43.16
2023-01-30T04:37:23.471Z,42.74
2023-01-30T04:39:53.796Z,43.29
2023-01-30T04:42:24.137Z,43.25
2023-01-30T04:44:54.576Z,43.29
2023-01-30T04:47:25.027Z,43.15
2023-01-30T04:49:55.566Z,43.32
2023-01-30T04:52:27.853Z,42.81
2023-01-30T04:54:58.620Z,43.34
2023-01-30T04:57:29.367Z,43.43
2023-01-30T04:59:59.454Z,43.42
2023-01-30T05:02:30.153Z,42.99
2023-01-30T05:05:01.045Z,43.24
2023-01-30T05:07:33.613Z,42.98
2023-01-30T05:10:04.927Z,42.93
2023-01-30T05:12:35.738Z,43.32
2023-01-30T05:15:07.317Z,43.49
2023-01-30T05:17:38.708Z,43.64
2023-01-30T05:20:11.933Z,43.26
2023-01-30T05:22:44.483Z,43.74
2023-01-30T05:25:15.703Z,43.90
2023-01-30T05:27:46.360Z,43.64
2023-01-30T05:30:17.422Z,44.03
2023-01-30T05:32:48.137Z,44.05
2023-01-30T05:35:19.501Z,44.25
2023-01-30T05:37:56.207Z,43.89
2023-01-30T05:40:28.820Z,44.40
2023-01-30T05:42:59.551Z,44.12
2023-01-30T05:45:30.331Z,44.33
2023-01-30T05:48:02.172Z,44.29
2023-01-30T05:50:33.579Z,44.44
2023-01-30T05:53:05.369Z,44.33
2023-01-30T05:55:36.274Z,44.38
2023-01-30T05:58:06.129Z,44.56
2023-01-30T06:00:36.076Z,44.57
2023-01-30T06:03:06.387Z,44.41
2023-01-30T06:05:39.856Z,44.72
2023-01-30T06:08:11.837Z,44.66
2023-01-30T06:10:42.676Z,44.51
2023-01-30T06:13:13.197Z,44.54
2023-01-30T06:15:44.086Z,44.41
2023-01-30T06:18:14.051Z,44.22
2023-01-30T06:20:49.108Z,44.18
2023-01-30T06:23:23.824Z,44.07
2023-01-30T06:25:56.173Z,43.85
2023-01-30T06:28:28.091Z,44.01
2023-01-30T06:30:58.731Z,43.55
2023-01-30T06:33:29.445Z,43.84
2023-01-30T06:36:00.600Z,43.61
2023-01-30T06:38:33.059Z,43.65
2023-01-30T06:41:04.471Z,43.44
2023-01-30T06:43:35.108Z,43.30
2023-01-30T06:46:05.745Z,43.08
2023-01-30T06:48:36.212Z,43.10
2023-01-30T06:51:06.950Z,42.95
2023-01-30T06:53:39.797Z,42.86
2023-01-30T06:56:10.649Z,42.68
2023-01-30T06:58:40.613Z,43.08
2023-01-30T07:01:10.671Z,42.71
2023-01-30T07:03:41.448Z,42.33
2023-01-30T07:06:11.985Z,42.24
2023-01-30T07:08:44.970Z,42.25
2023-01-30T07:11:15.449Z,42.17
2023-01-30T07:13:45.772Z,42.29
2023-01-30T07:16:16.365Z,41.92
2023-01-30T07:18:47.446Z,41.64
2023-01-30T07:21:18.055Z,41.86
2023-01-30T07:23:51.597Z,41.81
2023-01-30T07:26:22.898Z,42.09
2023-01-30T07:28:53.415Z,41.81
2023-01-30T07:31:24.194Z,41.55
2023-01-30T07:33:54.824Z,41.74
2023-01-30T07:36:25.448Z,41.56
2023-01-30T07:38:57.983Z,41.28
2023-01-30T07:41:28.142Z,41.46
2023-01-30T07:43:58.677Z,40.85
2023-01-30T07:46:35.593Z,40.89
2023-01-30T07:49:07.322Z,41.08
2023-01-30T07:51:38.060Z,40.99
2023-01-30T07:54:11.259Z,40.88
2023-01-30T07:56:42.009Z,40.56
2023-01-30T07:59:14.211Z,40.20
2023-01-30T08:01:44.887Z,40.25
2023-01-30T08:04:15.230Z,40.07
2023-01-30T08:06:45.262Z,39.70
2023-01-30T08:09:17.826Z,39.28
2023-01-30T08:11:48.855Z,39.04
2023-01-30T08:14:19.575Z,39.17
2023-01-30T08:16:52.792Z,38.55
2023-01-30T08:19:24.461Z,38.69
2023-01-30T08:21:55.061Z,38.62
2023-01-30T08:24:28.099Z,38.46
2023-01-30T08:26:58.594Z,38.40
2023-01-30T08:29:29.156Z,38.26
2023-01-30T08:32:02.179Z,38.20
2023-01-30T08:34:32.718Z,38.20
2023-01-30T08:37:02.774Z,38.19
2023-01-30T08:39:37.206Z,38.03
2023-01-30T08:42:08.206Z,38.09
2023-01-30T08:44:38.184Z,38.43
2023-01-30T08:47:08.096Z,38.35
2023-01-30T08:49:38.452Z,38.72
2023-01-30T08:52:08.934Z,38.54
2023-01-30T08:54:40.841Z,38.28
2023-01-30T08:57:11.333Z,38.12
2023-01-30T08:59:41.688Z,38.33
2023-01-30T09:02:14.555Z,38.31
2023-01-30T09:04:44.868Z,38.16
2023-01-30T09:07:15.655Z,38.34
2023-01-30T09:10:00.963Z,38.18
2023-01-30T09:12:31.116Z,38.24
2023-01-30T09:15:01.793Z,38.33
2023-01-30T09:17:32.044Z,38.10
2023-01-30T09:20:02.834Z,38.31
2023-01-30T09:22:33.451Z,38.16
2023-01-30T09:25:06.304Z,37.88
2023-01-30T09:27:37.673Z,38.02
2023-01-30T09:30:09.854Z,37.89
2023-01-30T09:32:41.361Z,37.90
2023-01-30T09:35:11.985Z,38.03
2023-01-30T09:37:50.666Z,38.17
2023-01-30T09:40:27.814Z,38.22
2023-01-30T09:43:27.504Z,38.16
2023-01-30T09:46:23.282Z,38.12
2023-01-30T09:49:05.906Z,38.09
2023-01-30T09:51:52.574Z,38.05
2023-01-30T09:54:31.799Z,37.91
2023-01-30T09:57:21.992Z,37.82
2023-01-30T10:00:13.702Z,37.87
2023-01-30T10:02:56.190Z,38.04
2023-01-30T10:05:38.306Z,37.87
2023-01-30T10:08:35.709Z,37.83
2023-01-30T10:11:17.706Z,37.79
2023-01-30T10:14:31.242Z,37.75
2023-01-30T10:17:20.321Z,37.87
2023-01-30T10:20:15.257Z,37.76
2023-01-30T10:23:02.976Z,37.83
2023-01-30T10:25:44.051Z,37.74
2023-01-30T10:28:25.239Z,37.70
2023-01-30T10:31:06.310Z,37.72
2023-01-30T10:33:45.463Z,37.84
2023-01-30T10:36:32.045Z,37.96
2023-01-30T10:39:08.498Z,37.66
2023-01-30T10:41:48.665Z,37.84
2023-01-30T10:44:20.180Z,37.81
2023-01-30T10:47:34.731Z,37.79
2023-01-30T10:50:19.780Z,37.68
2023-01-30T10:53:02.458Z,37.90
2023-01-30T10:55:40.334Z,37.82
2023-01-30T10:58:26.989Z,37.55
2023-01-30T11:01:19.216Z,37.45
2023-01-30T11:03:59.003Z,37.63
2023-01-30T11:06:30.283Z,37.68
2023-01-30T11:09:01.245Z,37.56
2023-01-30T11:11:39.047Z,37.51
2023-01-30T11:14:11.534Z,37.54
2023-01-30T11:16:49.266Z,37.49
2023-01-30T11:19:26.249Z,37.48
2023-01-30T11:22:02.772Z,37.56
2023-01-30T11:24:40.932Z,37.52
2023-01-30T11:27:21.802Z,37.53
2023-01-30T11:29:52.995Z,37.54
2023-01-30T11:32:30.423Z,37.35
2023-01-30T11:35:29.954Z,37.46
2023-01-30T11:38:23.806Z,37.51
2023-01-30T11:41:08.174Z,37.45
2023-01-30T11:43:41.924Z,37.36
2023-01-30T11:46:19.112Z,37.39
2023-01-30T11:49:14.165Z,37.40
2023-01-30T11:51:57.461Z,37.27
2023-01-30T11:54:38.453Z,37.31
2023-01-30T11:57:15.666Z,37.22
2023-01-30T11:59:51.180Z,37.29
2023-01-30T12:02:27.704Z,37.30
2023-01-30T12:05:02.771Z,37.22
2023-01-30T12:07:39.134Z,37.34
2023-01-30T12:10:32.880Z,37.58
2023-01-30T12:13:17.107Z,37.35
2023-01-30T12:15:50.869Z,37.36
2023-01-30T12:18:31.107Z,36.95
2023-01-30T12:21:04.298Z,37.25
2023-01-30T12:23:48.059Z,37.31
2023-01-30T12:26:24.104Z,37.36
2023-01-30T12:29:03.862Z,37.37
2023-01-30T12:31:42.783Z,37.29
2023-01-30T12:34:13.819Z,37.23
2023-01-30T12:36:58.104Z,37.29
2023-01-30T12:39:52.172Z,37.29
2023-01-30T12:43:06.881Z,37.40
2023-01-30T12:45:45.403Z,37.39
2023-01-30T12:48:48.800Z,37.38
2023-01-30T12:51:54.423Z,37.34
2023-01-30T12:54:49.142Z,37.57
2023-01-30T12:57:34.371Z,37.48
2023-01-30T13:00:36.211Z,37.46
2023-01-30T13:03:33.201Z,37.47
2023-01-30T13:06:26.896Z,37.62
2023-01-30T13:09:24.442Z,37.47
2023-01-30T13:12:10.639Z,37.37
2023-01-30T13:14:54.281Z,37.50
2023-01-30T13:17:49.601Z,37.44
2023-01-30T13:20:46.834Z,37.77
2023-01-30T13:23:25.977Z,37.41
2023-01-30T13:26:06.662Z,37.64
2023-01-30T13:28:44.889Z,37.56
2023-01-30T13:31:21.884Z,37.23
2023-01-30T13:34:01.411Z,37.37
2023-01-30T13:36:44.402Z,37.38
2023-01-30T13:39:21.852Z,37.63
2023-01-30T13:42:03.031Z,37.27
2023-01-30T13:44:40.826Z,37.32
2023-01-30T13:47:30.569Z,37.15
2023-01-30T13:50:34.573Z,37.20
2023-01-30T13:53:14.943Z,37.32
2023-01-30T13:55:57.904Z,37.55
2023-01-30T13:58:47.311Z,37.34
2023-01-30T14:01:21.844Z,37.58
2023-01-30T14:03:52.973Z,37.44
2023-01-30T14:06:43.595Z,37.59
2023-01-30T14:09:33.788Z,37.56
2023-01-30T14:12:07.205Z,37.50
2023-01-30T14:14:41.176Z,37.46
2023-01-30T14:17:16.869Z,37.34
2023-01-30T14:20:02.698Z,37.48
2023-01-30T14:22:51.160Z,37.38
2023-01-30T14:25:47.793Z,37.45
2023-01-30T14:28:52.844Z,37.68
2023-01-30T14:31:51.639Z,37.63
2023-01-30T14:35:29.092Z,37.69
2023-01-30T14:38:15.154Z,37.51
2023-01-30T14:41:20.070Z,37.45
2023-01-30T14:43:54.152Z,37.56
2023-01-30T14:46:58.514Z,37.84
2023-01-30T14:49:37.486Z,38.29
2023-01-30T14:52:37.125Z,37.84
2023-01-30T14:55:18.152Z,38.25
2023-01-30T14:58:02.427Z,37.97
2023-01-30T15:00:39.152Z,38.31
2023-01-30T15:03:22.047Z,38.18
2023-01-30T15:05:53.058Z,38.18
2023-01-30T15:08:29.331Z,38.56
2023-01-30T15:11:15.671Z,38.04
2023-01-30T15:14:08.073Z,38.25
2023-01-30T15:17:06.405Z,38.37
2023-01-30T15:20:22.567Z,38.35
2023-01-30T15:23:16.897Z,38.56
2023-01-30T15:26:19.178Z,38.54
2023-01-30T15:29:21.944Z,38.72
2023-01-30T15:31:58.248Z,38.72
2023-01-30T15:34:32.931Z,38.96
2023-01-30T15:37:06.502Z,38.96
2023-01-30T15:39:36.985Z,39.16
2023-01-30T15:42:18.045Z,38.87
2023-01-30T15:45:00.876Z,39.12
2023-01-30T15:47:59.856Z,39.33
2023-01-30T15:50:30.357Z,39.03
2023-01-30T15:53:01.097Z,38.86
2023-01-30T15:55:36.736Z,39.30
2023-01-30T15:58:15.674Z,39.41
2023-01-30T16:00:52.444Z,39.19
2023-01-30T16:03:26.953Z,39.40
2023-01-30T16:06:00.332Z,39.58
2023-01-30T16:08:33.748Z,39.15
2023-01-30T16:11:04.496Z,39.44
2023-01-30T16:13:39.983Z,39.87
2023-01-30T16:16:18.082Z,39.87
2023-01-30T16:18:56.074Z,39.47
2023-01-30T16:21:34.714Z,39.73
2023-01-30T16:24:08.987Z,39.49
2023-01-30T16:26:46.132Z,39.86
2023-01-30T16:29:24.131Z,39.85
2023-01-30T16:31:56.403Z,39.78
2023-01-30T16:34:36.739Z,39.21
2023-01-30T16:37:25.677Z,39.31
2023-01-30T16:40:15.483Z,39.47
2023-01-30T16:42:58.877Z,39.40
2023-01-30T16:46:37.926Z,39.29
2023-01-30T16:49:09.009Z,39.27
2023-01-30T16:51:39.467Z,39.25
2023-01-30T16:54:24.507Z,39.33
2023-01-30T16:56:59.917Z,39.33
2023-01-30T16:59:34.962Z,39.27
2023-01-30T17:02:09.517Z,39.35
2023-01-30T17:04:41.778Z,39.62
2023-01-30T17:07:37.845Z,39.26
2023-01-30T17:10:30.046Z,39.62
2023-01-30T17:13:01.918Z,39.50
2023-01-30T17:15:36.300Z,39.46
2023-01-30T17:18:11.279Z,39.39
2023-01-30T17:20:51.584Z,39.65
2023-01-30T17:23:24.618Z,39.83
2023-01-30T17:25:55.813Z,39.49
2023-01-30T17:28:26.361Z,39.77
2023-01-30T17:30:57.096Z,39.59
2023-01-30T17:33:29.187Z,39.67
2023-01-30T17:36:00.655Z,39.79
2023-01-30T17:38:30.640Z,39.58
2023-01-30T17:41:02.646Z,40.08
2023-01-30T17:43:33.169Z,40.13
2023-01-30T17:46:03.768Z,40.02
2023-01-30T17:48:35.634Z,39.72
2023-01-30T17:51:06.059Z,39.88
2023-01-30T17:53:36.675Z,40.22
2023-01-30T17:56:22.196Z,40.11
2023-01-30T17:58:52.721Z,39.97
2023-01-30T18:01:23.231Z,39.90
2023-01-30T18:03:55.067Z,40.12
2023-01-30T18:06:27.527Z,40.17
2023-01-30T18:08:58.057Z,40.04
2023-01-30T18:11:28.638Z,40.47
2023-01-30T18:13:59.377Z,40.11
2023-01-30T18:16:33.396Z,40.38
2023-01-30T18:19:07.364Z,40.04
2023-01-30T18:21:40.456Z,40.10
2023-01-30T18:24:11.439Z,40.15
2023-01-30T18:26:42.016Z,40.17
2023-01-30T18:29:20.286Z,39.99
2023-01-30T18:31:51.155Z,40.42
2023-01-30T18:34:23.186Z,39.95
2023-01-30T18:36:53.754Z,40.17
2023-01-30T18:39:25.301Z,40.35
2023-01-30T18:41:55.711Z,40.27
2023-01-30T18:44:26.368Z,40.27
2023-01-30T18:46:57.637Z,40.19
2023-01-30T18:49:29.760Z,39.96
2023-01-30T18:52:00.419Z,39.97
2023-01-30T18:54:31.301Z,40.12
2023-01-30T18:57:01.943Z,39.97
2023-01-30T18:59:31.844Z,40.30
2023-01-30T19:02:02.593Z,40.42
2023-01-30T19:04:36.609Z,40.27
2023-01-30T19:07:07.095Z,39.80
2023-01-30T19:09:37.148Z,39.99
2023-01-30T19:12:24.787Z,40.35
2023-01-30T19:14:55.644Z,39.78
2023-01-30T19:17:26.402Z,39.81
2023-01-30T19:20:01.751Z,39.92
2023-01-30T19:22:32.371Z,39.66
2023-01-30T19:25:03.049Z,39.99
2023-01-30T19:27:33.610Z,39.47
2023-01-30T19:30:04.384Z,39.70
2023-01-30T19:32:35.321Z,39.72
2023-01-30T19:35:09.702Z,39.63
2023-01-30T19:37:41.008Z,39.53
2023-01-30T19:40:13.050Z,39.81
2023-01-30T19:42:44.666Z,39.41
2023-01-30T19:45:15.390Z,39.35
2023-01-30T19:47:46.027Z,39.53
2023-01-30T19:50:19.808Z,39.36
2023-01-30T19:52:50.638Z,39.63
2023-01-30T19:55:21.084Z,39.73
2023-01-30T19:57:51.614Z,39.24
2023-01-30T20:00:24.019Z,39.26
2023-01-30T20:02:54.735Z,39.61
2023-01-30T20:05:28.525Z,39.38
2023-01-30T20:07:59.276Z,39.05
2023-01-30T20:10:30.069Z,39.12
2023-01-30T20:13:00.588Z,39.22
2023-01-30T20:15:31.275Z,39.23
2023-01-30T20:18:02.012Z,38.85
2023-01-30T20:20:35.126Z,39.35
2023-01-30T20:23:05.082Z,38.87
2023-01-30T20:25:38.701Z,39.34
2023-01-30T20:28:09.947Z,39.05
2023-01-30T20:30:43.385Z,39.26
2023-01-30T20:33:13.774Z,39.05
2023-01-30T20:35:45.843Z,39.08
2023-01-30T20:38:16.476Z,38.93
2023-01-30T20:40:47.883Z,39.21
2023-01-30T20:43:18.643Z,39.31
2023-01-30T20:45:49.526Z,39.32
2023-01-30T20:48:21.343Z,39.33
2023-01-30T20:50:54.440Z,39.39
2023-01-30T20:53:25.782Z,39.01
2023-01-30T20:56:00.186Z,39.18
2023-01-30T20:58:31.938Z,38.82
2023-01-30T21:01:11.856Z,39.10
2023-01-30T21:03:44.436Z,38.65
2023-01-30T21:06:42.626Z,38.84
2023-01-30T21:09:13.092Z,38.92
2023-01-30T21:11:44.808Z,39.21
2023-01-30T21:14:16.316Z,39.21
2023-01-30T21:16:47.420Z,39.47
2023-01-30T21:19:19.625Z,38.87
2023-01-30T21:21:54.398Z,39.15
2023-01-30T21:24:28.055Z,38.94
2023-01-30T21:27:00.365Z,39.12
2023-01-30T21:29:33.509Z,39.11
2023-01-30T21:32:04.047Z,38.87
2023-01-30T21:34:35.670Z,39.33
2023-01-30T21:37:24.502Z,38.71
2023-01-30T21:40:07.906Z,38.52
2023-01-30T21:42:54.882Z,38.66
2023-01-30T21:45:24.639Z,38.43
2023-01-30T21:47:56.765Z,38.61
2023-01-30T21:50:32.845Z,38.40
2023-01-30T21:53:04.623Z,38.41
2023-01-30T21:55:34.767Z,38.79
2023-01-30T21:58:04.915Z,38.67
2023-01-30T22:00:35.156Z,38.40
2023-01-30T22:03:07.089Z,38.74
2023-01-30T22:05:38.884Z,38.40
2023-01-30T22:08:11.566Z,38.75
2023-01-30T22:10:41.851Z,38.63
2023-01-30T22:13:12.819Z,38.73
2023-01-30T22:15:44.833Z,38.95
2023-01-30T22:18:15.899Z,38.88
2023-01-30T22:20:45.890Z,38.33
2023-01-30T22:23:18.133Z,38.66
2023-01-30T22:25:57.923Z,38.48
2023-01-30T22:28:30.263Z,38.31
2023-01-30T22:31:06.063Z,38.33
2023-01-30T22:33:38.220Z,38.50
2023-01-30T22:36:10.611Z,38.26
2023-01-30T22:38:46.276Z,38.40
2023-01-30T22:41:21.147Z,38.55
2023-01-30T22:43:55.726Z,38.62
2023-01-30T22:46:29.121Z,38.57
2023-01-30T22:49:01.718Z,38.72
2023-01-30T22:51:34.604Z,38.54
2023-01-30T22:54:09.458Z,38.54
2023-01-30T22:56:42.535Z,38.86
2023-01-30T22:59:13.574Z,38.62
2023-01-30T23:01:47.814Z,38.93
2023-01-30T23:04:20.917Z,38.89
2023-01-30T23:06:53.897Z,38.74
2023-01-30T23:09:27.293Z,39.00
2023-01-30T23:12:16.975Z,38.68
2023-01-30T23:14:47.753Z,39.21
2023-01-30T23:17:34.722Z,38.83
2023-01-30T23:20:05.476Z,39.00
2023-01-30T23:22:36.764Z,38.93
2023-01-30T23:25:11.522Z,38.94
2023-01-30T23:27:41.725Z,38.78
2023-01-30T23:30:13.547Z,38.75
2023-01-30T23:32:44.087Z,38.20
2023-01-30T23:35:14.204Z,38.31
2023-01-30T23:38:03.366Z,38.40
2023-01-30T23:40:36.516Z,38.38
2023-01-30T23:43:07.024Z,38.51
2023-01-30T23:45:38.939Z,38.29
2023-01-30T23:48:10.772Z,38.60
2023-01-30T23:50:42.917Z,38.46
2023-01-30T23:53:14.107Z,38.14
2023-01-30T23:55:54.118Z,38.00
2023-01-30T23:58:24.949Z,37.95
